createdAt,value
2022-12-18T01:00:17.873Z,36.10
2022-12-18T01:03:19.097Z,38.00
2022-12-18T01:06:42.819Z,37.90
2022-12-18T01:10:12.808Z,40.10
2022-12-18T01:14:10.326Z,39.10
2022-12-18T01:17:46.127Z,31.60
2022-12-18T01:20:36.879Z,37.80
2022-12-18T01:23:49.188Z,34.60
2022-12-18T01:30:15.463Z,42.40
2022-12-18T01:40:02.605Z,41.40
2022-12-18T01:42:57.403Z,39.60
2022-12-18T01:46:30.675Z,39.30
2022-12-18T01:49:47.626Z,38.50
2022-12-18T01:53:41.896Z,36.30
2022-12-18T01:56:56.476Z,37.70
2022-12-18T02:00:11.653Z,40.80
2022-12-18T02:03:13.065Z,35.60
2022-12-18T02:09:45.078Z,35.70
2022-12-18T02:15:43.517Z,40.10
2022-12-18T02:18:27.438Z,34.00
2022-12-18T02:25:50.994Z,36.80
2022-12-18T02:29:58.015Z,41.10
2022-12-18T02:38:42.690Z,36.10
2022-12-18T03:00:07.509Z,38.50
2022-12-18T03:01:25.618Z,42.10
2022-12-18T03:10:30.834Z,42.00
2022-12-18T03:23:18.067Z,42.60
2022-12-18T03:26:41.432Z,44.30
2022-12-18T04:11:06.084Z,42.10
2022-12-18T04:13:37.564Z,38.60
2022-12-18T04:24:24.364Z,37.10
2022-12-18T04:31:13.122Z,41.40
2022-12-18T04:38:41.145Z,37.50
2022-12-18T04:45:00.113Z,42.60
2022-12-18T04:48:33.689Z,36.90
2022-12-18T04:55:29.184Z,36.80
2022-12-18T04:58:12.372Z,33.60
2022-12-18T05:00:41.825Z,40.80
2022-12-18T05:03:10.083Z,38.50
2022-12-18T05:05:39.363Z,38.10
2022-12-18T05:08:07.833Z,43.20
2022-12-18T05:10:38.279Z,38.80
2022-12-18T05:13:06.417Z,37.80
2022-12-18T05:15:34.843Z,40.20
2022-12-18T05:18:04.529Z,40.70
2022-12-18T05:20:33.387Z,36.90
2022-12-18T05:23:08.570Z,39.70
2022-12-18T05:26:03.233Z,46.90
2022-12-18T05:28:44.861Z,40.70
2022-12-18T05:31:25.578Z,41.10
2022-12-18T05:33:59.709Z,43.30
2022-12-18T05:36:29.400Z,44.80
2022-12-18T05:47:11.468Z,48.60
2022-12-18T05:50:52.450Z,48.70
2022-12-18T06:01:31.692Z,45.90
2022-12-18T06:11:20.870Z,47.60
2022-12-18T06:40:16.536Z,43.60
2022-12-18T06:50:14.705Z,44.20
2022-12-18T06:52:48.022Z,47.30
2022-12-18T07:38:19.347Z,46.30
2022-12-18T07:42:23.596Z,45.80
2022-12-18T07:52:24.321Z,48.40
2022-12-18T07:54:52.915Z,44.60
2022-12-18T08:02:43.397Z,47.10
2022-12-18T09:13:10.925Z,43.20
2022-12-18T09:41:17.036Z,50.10
2022-12-18T09:45:08.171Z,50.40
2022-12-18T11:33:00.689Z,54.90
2022-12-18T12:27:46.039Z,53.40
2022-12-18T12:53:55.319Z,53.20
2022-12-18T12:56:32.164Z,54.00
2022-12-18T12:59:17.869Z,58.60
2022-12-18T13:02:13.309Z,50.40
2022-12-18T13:04:58.844Z,49.70
2022-12-18T13:13:23.706Z,49.40
2022-12-18T13:16:09.995Z,55.30
2022-12-18T13:18:52.737Z,47.60
2022-12-18T13:21:29.581Z,56.10
2022-12-18T13:24:20.825Z,55.60
2022-12-18T13:26:50.776Z,59.90
2022-12-18T13:29:39.622Z,54.40
2022-12-18T13:32:47.862Z,52.00
2022-12-18T13:35:23.829Z,54.20
2022-12-18T13:37:54.398Z,51.50
2022-12-18T13:40:46.424Z,50.80
2022-12-18T13:43:21.220Z,53.50
2022-12-18T13:45:51.744Z,54.60
2022-12-18T13:48:27.154Z,54.70
2022-12-18T13:51:05.144Z,56.50
2022-12-18T13:53:40.831Z,53.30
2022-12-18T13:56:10.589Z,53.50
2022-12-18T13:58:39.966Z,51.00
2022-12-18T14:01:24.484Z,58.90
2022-12-18T14:04:11.056Z,57.40
2022-12-18T14:06:40.948Z,59.70
2022-12-18T14:09:20.333Z,60.10
2022-12-18T14:11:52.754Z,58.60
2022-12-18T14:14:29.441Z,52.50
2022-12-18T14:17:03.158Z,52.40
2022-12-18T14:19:33.269Z,56.30
2022-12-18T14:22:02.113Z,55.80
2022-12-18T14:24:31.794Z,56.70
2022-12-18T14:27:20.918Z,61.90
2022-12-18T14:29:49.647Z,62.40
2022-12-18T14:32:21.302Z,55.60
2022-12-18T14:34:58.441Z,55.70
2022-12-18T14:37:29.178Z,49.80
2022-12-18T14:46:31.655Z,56.00
2022-12-18T14:49:05.873Z,54.10
2022-12-18T14:51:35.999Z,54.40
2022-12-18T14:54:11.155Z,49.70
2022-12-18T14:56:47.498Z,47.60
2022-12-18T14:59:25.114Z,43.10
2022-12-18T15:02:16.988Z,49.70
2022-12-18T15:04:46.844Z,51.10
2022-12-18T15:07:21.565Z,47.00
2022-12-18T15:10:14.381Z,52.50
2022-12-18T15:12:49.602Z,49.50
2022-12-18T15:15:46.043Z,46.90
2022-12-18T15:18:42.975Z,48.90
2022-12-18T15:21:17.669Z,51.50
2022-12-18T15:23:46.287Z,49.00
2022-12-18T15:26:19.790Z,56.10
2022-12-18T15:28:51.565Z,55.40
2022-12-18T15:31:36.317Z,46.50
2022-12-18T15:34:15.204Z,53.30
2022-12-18T15:36:43.859Z,56.90
2022-12-18T15:39:14.400Z,51.40
2022-12-18T15:42:02.890Z,53.90
2022-12-18T15:44:32.413Z,48.80
2022-12-18T15:47:01.536Z,55.70
2022-12-18T15:49:31.036Z,48.10
2022-12-18T15:52:03.949Z,44.90
2022-12-18T15:54:51.734Z,42.20
2022-12-18T15:57:26.064Z,45.80
2022-12-18T15:59:59.604Z,41.60
2022-12-18T16:02:29.872Z,45.50
2022-12-18T16:04:58.839Z,49.00
2022-12-18T16:07:30.534Z,49.10
2022-12-18T16:10:01.634Z,60.70
2022-12-18T16:12:32.104Z,51.90
2022-12-18T16:15:00.655Z,54.20
2022-12-18T16:17:29.414Z,46.70
2022-12-18T16:19:58.144Z,42.20
2022-12-18T16:22:29.462Z,53.30
2022-12-18T16:24:59.034Z,52.50
2022-12-18T16:27:27.546Z,64.50
2022-12-18T16:29:56.154Z,58.10
2022-12-18T16:32:24.785Z,76.50
2022-12-18T16:34:53.639Z,56.70
2022-12-18T16:37:22.539Z,53.80
2022-12-18T16:39:50.941Z,50.70
2022-12-18T16:42:21.581Z,49.70
2022-12-18T16:44:51.042Z,54.90
2022-12-18T16:47:20.099Z,52.70
2022-12-18T16:49:51.971Z,44.90
2022-12-18T16:52:21.123Z,49.90
2022-12-18T16:54:49.657Z,56.00
2022-12-18T16:57:21.256Z,58.40
2022-12-18T16:59:54.313Z,49.20
2022-12-18T17:02:25.457Z,47.70
2022-12-18T17:04:57.547Z,46.40
2022-12-18T17:07:27.969Z,52.40
2022-12-18T17:09:57.129Z,54.70
2022-12-18T17:12:27.018Z,55.30
2022-12-18T17:14:55.465Z,62.00
2022-12-18T17:17:24.281Z,50.60
2022-12-18T17:19:53.155Z,46.60
2022-12-18T17:22:23.564Z,63.80
2022-12-18T17:24:52.229Z,59.80
2022-12-18T17:27:20.761Z,48.20
2022-12-18T17:29:49.367Z,46.60
2022-12-18T17:32:18.428Z,52.90
2022-12-18T17:34:47.439Z,45.30
2022-12-18T17:37:16.061Z,46.60
2022-12-18T17:39:44.845Z,44.80
2022-12-18T17:42:15.935Z,48.90
2022-12-18T17:44:45.597Z,50.50
2022-12-18T17:47:15.438Z,50.90
2022-12-18T17:49:44.382Z,52.80
2022-12-18T17:52:13.874Z,45.60
2022-12-18T17:54:44.225Z,46.70
2022-12-18T17:59:41.889Z,45.20
